sensor_id;sensor_type;location;lat;lon;timestamp;temperature;humidity
60287;DHT22;46141;52.382;5.270;2022-10-16T00:01:23;19.60;88.50
60287;DHT22;46141;52.382;5.270;2022-10-16T00:03:49;19.50;88.40
60287;DHT22;46141;52.382;5.270;2022-10-16T00:06:16;19.60;88.50
60287;DHT22;46141;52.382;5.270;2022-10-16T00:08:43;19.50;88.50
60287;DHT22;46141;52.382;5.270;2022-10-16T00:11:15;19.60;88.60
60287;DHT22;46141;52.382;5.270;2022-10-16T00:13:42;19.50;88.60
60287;DHT22;46141;52.382;5.270;2022-10-16T00:16:09;19.50;88.60
60287;DHT22;46141;52.382;5.270;2022-10-16T00:18:36;19.50;88.70
60287;DHT22;46141;52.382;5.270;2022-10-16T00:21:07;19.50;88.80
60287;DHT22;46141;52.382;5.270;2022-10-16T00:23:34;19.50;88.70
60287;DHT22;46141;52.382;5.270;2022-10-16T00:26:02;19.50;88.90
60287;DHT22;46141;52.382;5.270;2022-10-16T00:28:28;19.50;88.70
60287;DHT22;46141;52.382;5.270;2022-10-16T00:30:53;19.50;89.20
60287;DHT22;46141;52.382;5.270;2022-10-16T00:33:19;19.50;88.80
60287;DHT22;46141;52.382;5.270;2022-10-16T00:35:45;19.50;88.80
60287;DHT22;46141;52.382;5.270;2022-10-16T00:38:11;19.50;88.90
60287;DHT22;46141;52.382;5.270;2022-10-16T00:40:37;19.50;88.90
60287;DHT22;46141;52.382;5.270;2022-10-16T00:43:04;19.50;88.90
60287;DHT22;46141;52.382;5.270;2022-10-16T00:45:30;19.50;88.80
60287;DHT22;46141;52.382;5.270;2022-10-16T00:47:56;19.50;88.80
60287;DHT22;46141;52.382;5.270;2022-10-16T00:50:28;19.50;88.70
60287;DHT22;46141;52.382;5.270;2022-10-16T00:52:57;19.50;88.80
60287;DHT22;46141;52.382;5.270;2022-10-16T00:55:24;19.50;88.80
60287;DHT22;46141;52.382;5.270;2022-10-16T00:57:52;19.50;88.60
60287;DHT22;46141;52.382;5.270;2022-10-16T01:00:21;19.50;88.70
60287;DHT22;46141;52.382;5.270;2022-10-16T01:02:55;19.50;88.90
60287;DHT22;46141;52.382;5.270;2022-10-16T01:05:23;19.40;88.70
60287;DHT22;46141;52.382;5.270;2022-10-16T01:07:55;19.40;88.80
60287;DHT22;46141;52.382;5.270;2022-10-16T01:10:35;19.40;88.70
60287;DHT22;46141;52.382;5.270;2022-10-16T01:13:11;19.40;88.70
60287;DHT22;46141;52.382;5.270;2022-10-16T01:15:43;19.40;88.70
60287;DHT22;46141;52.382;5.270;2022-10-16T01:18:29;19.40;88.70
60287;DHT22;46141;52.382;5.270;2022-10-16T01:21:05;19.40;88.50
60287;DHT22;46141;52.382;5.270;2022-10-16T01:24:06;19.40;88.60
60287;DHT22;46141;52.382;5.270;2022-10-16T01:29:48;19.40;88.60
60287;DHT22;46141;52.382;5.270;2022-10-16T01:32:26;19.40;88.60
60287;DHT22;46141;52.382;5.270;2022-10-16T01:37:35;19.40;88.40
60287;DHT22;46141;52.382;5.270;2022-10-16T01:40:07;19.40;88.50
60287;DHT22;46141;52.382;5.270;2022-10-16T01:42:41;19.40;88.60
60287;DHT22;46141;52.382;5.270;2022-10-16T01:45:12;19.40;88.60
60287;DHT22;46141;52.382;5.270;2022-10-16T01:47:40;19.40;88.60
60287;DHT22;46141;52.382;5.270;2022-10-16T01:50:08;19.40;88.40
60287;DHT22;46141;52.382;5.270;2022-10-16T01:52:39;19.40;88.60
60287;DHT22;46141;52.382;5.270;2022-10-16T01:55:08;19.30;88.50
60287;DHT22;46141;52.382;5.270;2022-10-16T01:57:39;19.40;88.40
60287;DHT22;46141;52.382;5.270;2022-10-16T02:00:10;19.30;88.50
60287;DHT22;46141;52.382;5.270;2022-10-16T02:02:40;19.30;88.40
60287;DHT22;46141;52.382;5.270;2022-10-16T02:07:41;19.30;88.30
60287;DHT22;46141;52.382;5.270;2022-10-16T02:10:07;19.30;88.60
60287;DHT22;46141;52.382;5.270;2022-10-16T02:12:37;19.30;88.40
60287;DHT22;46141;52.382;5.270;2022-10-16T02:15:05;19.30;88.50
60287;DHT22;46141;52.382;5.270;2022-10-16T02:17:30;19.30;88.40
60287;DHT22;46141;52.382;5.270;2022-10-16T02:19:58;19.30;88.30
60287;DHT22;46141;52.382;5.270;2022-10-16T02:22:32;19.30;88.50
60287;DHT22;46141;52.382;5.270;2022-10-16T02:25:10;19.30;88.40
60287;DHT22;46141;52.382;5.270;2022-10-16T02:30:38;19.30;88.30
60287;DHT22;46141;52.382;5.270;2022-10-16T02:33:08;19.30;88.30
60287;DHT22;46141;52.382;5.270;2022-10-16T02:35:36;19.30;88.40
60287;DHT22;46141;52.382;5.270;2022-10-16T02:38:03;19.30;88.40
60287;DHT22;46141;52.382;5.270;2022-10-16T02:40:30;19.30;88.50
60287;DHT22;46141;52.382;5.270;2022-10-16T02:42:55;19.30;88.50
60287;DHT22;46141;52.382;5.270;2022-10-16T02:45:24;19.30;88.50
60287;DHT22;46141;52.382;5.270;2022-10-16T02:47:49;19.30;88.50
60287;DHT22;46141;52.382;5.270;2022-10-16T02:50:16;19.30;88.50
60287;DHT22;46141;52.382;5.270;2022-10-16T02:52:41;19.20;88.40
60287;DHT22;46141;52.382;5.270;2022-10-16T02:55:07;19.20;88.50
60287;DHT22;46141;52.382;5.270;2022-10-16T02:57:33;19.20;88.20
60287;DHT22;46141;52.382;5.270;2022-10-16T02:59:58;19.20;88.40
60287;DHT22;46141;52.382;5.270;2022-10-16T03:02:24;19.20;88.50
60287;DHT22;46141;52.382;5.270;2022-10-16T03:04:50;19.20;88.50
60287;DHT22;46141;52.382;5.270;2022-10-16T03:07:15;19.20;88.40
60287;DHT22;46141;52.382;5.270;2022-10-16T03:09:41;19.20;88.50
60287;DHT22;46141;52.382;5.270;2022-10-16T03:12:07;19.20;88.60
60287;DHT22;46141;52.382;5.270;2022-10-16T03:14:32;19.20;88.40
60287;DHT22;46141;52.382;5.270;2022-10-16T03:16:58;19.20;88.40
60287;DHT22;46141;52.382;5.270;2022-10-16T03:19:24;19.20;88.50
60287;DHT22;46141;52.382;5.270;2022-10-16T03:21:49;19.20;88.40
60287;DHT22;46141;52.382;5.270;2022-10-16T03:24:15;19.20;88.40
60287;DHT22;46141;52.382;5.270;2022-10-16T03:26:41;19.20;88.00
60287;DHT22;46141;52.382;5.270;2022-10-16T03:29:06;19.20;88.40
60287;DHT22;46141;52.382;5.270;2022-10-16T03:31:32;19.10;88.40
60287;DHT22;46141;52.382;5.270;2022-10-16T03:33:58;19.10;88.40
60287;DHT22;46141;52.382;5.270;2022-10-16T03:36:23;19.10;88.40
60287;DHT22;46141;52.382;5.270;2022-10-16T03:38:49;19.20;88.40
60287;DHT22;46141;52.382;5.270;2022-10-16T03:41:15;19.10;88.40
60287;DHT22;46141;52.382;5.270;2022-10-16T03:43:40;19.10;88.30
60287;DHT22;46141;52.382;5.270;2022-10-16T03:46:06;19.10;88.30
60287;DHT22;46141;52.382;5.270;2022-10-16T03:48:31;19.10;88.20
60287;DHT22;46141;52.382;5.270;2022-10-16T03:50:57;19.10;88.20
60287;DHT22;46141;52.382;5.270;2022-10-16T03:53:23;19.10;88.10
60287;DHT22;46141;52.382;5.270;2022-10-16T03:55:48;19.10;88.10
60287;DHT22;46141;52.382;5.270;2022-10-16T03:58:14;19.10;88.10
60287;DHT22;46141;52.382;5.270;2022-10-16T04:00:43;19.10;88.10
60287;DHT22;46141;52.382;5.270;2022-10-16T04:03:10;19.10;88.10
60287;DHT22;46141;52.382;5.270;2022-10-16T04:05:35;19.00;88.00
60287;DHT22;46141;52.382;5.270;2022-10-16T04:08:01;19.00;88.00
60287;DHT22;46141;52.382;5.270;2022-10-16T04:10:26;19.00;87.90
60287;DHT22;46141;52.382;5.270;2022-10-16T04:12:52;19.00;88.00
60287;DHT22;46141;52.382;5.270;2022-10-16T04:15:18;19.00;87.80
60287;DHT22;46141;52.382;5.270;2022-10-16T04:17:43;19.00;88.50
60287;DHT22;46141;52.382;5.270;2022-10-16T04:20:09;19.00;87.80
60287;DHT22;46141;52.382;5.270;2022-10-16T04:22:34;19.00;87.80
60287;DHT22;46141;52.382;5.270;2022-10-16T04:25:00;19.00;87.80
60287;DHT22;46141;52.382;5.270;2022-10-16T04:27:25;19.00;87.70
60287;DHT22;46141;52.382;5.270;2022-10-16T04:29:51;19.00;87.70
60287;DHT22;46141;52.382;5.270;2022-10-16T04:32:16;19.00;87.80
60287;DHT22;46141;52.382;5.270;2022-10-16T04:34:42;19.00;87.80
60287;DHT22;46141;52.382;5.270;2022-10-16T04:37:07;19.00;87.70
60287;DHT22;46141;52.382;5.270;2022-10-16T04:39:33;19.00;87.70
60287;DHT22;46141;52.382;5.270;2022-10-16T04:41:58;19.00;87.70
60287;DHT22;46141;52.382;5.270;2022-10-16T04:44:24;18.90;88.10
60287;DHT22;46141;52.382;5.270;2022-10-16T04:46:52;19.00;87.70
60287;DHT22;46141;52.382;5.270;2022-10-16T04:49:18;19.00;87.60
60287;DHT22;46141;52.382;5.270;2022-10-16T04:51:44;19.00;87.50
60287;DHT22;46141;52.382;5.270;2022-10-16T04:54:09;19.00;87.50
60287;DHT22;46141;52.382;5.270;2022-10-16T04:56:35;18.90;87.50
60287;DHT22;46141;52.382;5.270;2022-10-16T04:59:01;19.00;87.50
60287;DHT22;46141;52.382;5.270;2022-10-16T05:01:26;18.90;87.50
60287;DHT22;46141;52.382;5.270;2022-10-16T05:03:52;18.90;87.50
60287;DHT22;46141;52.382;5.270;2022-10-16T05:06:17;18.90;87.40
60287;DHT22;46141;52.382;5.270;2022-10-16T05:08:43;18.90;87.40
60287;DHT22;46141;52.382;5.270;2022-10-16T05:11:08;18.90;87.40
60287;DHT22;46141;52.382;5.270;2022-10-16T05:13:34;18.90;87.40
60287;DHT22;46141;52.382;5.270;2022-10-16T05:15:59;18.90;87.40
60287;DHT22;46141;52.382;5.270;2022-10-16T05:18:25;18.90;88.00
60287;DHT22;46141;52.382;5.270;2022-10-16T05:20:50;18.90;87.30
60287;DHT22;46141;52.382;5.270;2022-10-16T05:23:16;18.90;87.30
60287;DHT22;46141;52.382;5.270;2022-10-16T05:25:41;18.90;87.20
60287;DHT22;46141;52.382;5.270;2022-10-16T05:28:07;18.90;87.30
60287;DHT22;46141;52.382;5.270;2022-10-16T05:30:32;18.90;87.20
60287;DHT22;46141;52.382;5.270;2022-10-16T05:32:58;18.80;87.20
60287;DHT22;46141;52.382;5.270;2022-10-16T05:35:23;18.80;87.80
60287;DHT22;46141;52.382;5.270;2022-10-16T05:37:49;18.90;87.20
60287;DHT22;46141;52.382;5.270;2022-10-16T05:40:15;18.90;87.20
60287;DHT22;46141;52.382;5.270;2022-10-16T05:42:40;18.80;87.20
60287;DHT22;46141;52.382;5.270;2022-10-16T05:45:10;18.80;87.20
60287;DHT22;46141;52.382;5.270;2022-10-16T05:47:35;18.80;87.10
60287;DHT22;46141;52.382;5.270;2022-10-16T05:50:01;18.80;87.10
60287;DHT22;46141;52.382;5.270;2022-10-16T05:52:27;18.80;87.10
60287;DHT22;46141;52.382;5.270;2022-10-16T05:54:52;18.80;87.10
60287;DHT22;46141;52.382;5.270;2022-10-16T05:57:18;18.80;87.10
60287;DHT22;46141;52.382;5.270;2022-10-16T05:59:43;18.80;87.10
60287;DHT22;46141;52.382;5.270;2022-10-16T06:02:13;18.80;87.00
60287;DHT22;46141;52.382;5.270;2022-10-16T06:04:38;18.80;87.00
60287;DHT22;46141;52.382;5.270;2022-10-16T06:07:04;18.80;87.10
60287;DHT22;46141;52.382;5.270;2022-10-16T06:09:29;18.80;87.00
60287;DHT22;46141;52.382;5.270;2022-10-16T06:11:55;18.80;86.90
60287;DHT22;46141;52.382;5.270;2022-10-16T06:14:20;18.80;87.00
60287;DHT22;46141;52.382;5.270;2022-10-16T06:16:46;18.80;87.10
60287;DHT22;46141;52.382;5.270;2022-10-16T06:19:11;18.80;87.10
60287;DHT22;46141;52.382;5.270;2022-10-16T06:21:37;18.80;86.90
60287;DHT22;46141;52.382;5.270;2022-10-16T06:24:02;18.80;86.90
60287;DHT22;46141;52.382;5.270;2022-10-16T06:26:30;18.80;86.90
60287;DHT22;46141;52.382;5.270;2022-10-16T06:28:57;18.80;87.00
60287;DHT22;46141;52.382;5.270;2022-10-16T06:31:24;18.80;87.20
60287;DHT22;46141;52.382;5.270;2022-10-16T06:33:51;18.80;87.00
60287;DHT22;46141;52.382;5.270;2022-10-16T06:36:17;18.80;87.10
60287;DHT22;46141;52.382;5.270;2022-10-16T06:38:44;18.80;87.20
60287;DHT22;46141;52.382;5.270;2022-10-16T06:41:15;18.80;87.20
60287;DHT22;46141;52.382;5.270;2022-10-16T06:43:41;18.80;87.10
60287;DHT22;46141;52.382;5.270;2022-10-16T06:46:09;18.80;87.10
60287;DHT22;46141;52.382;5.270;2022-10-16T06:48:35;18.80;87.00
60287;DHT22;46141;52.382;5.270;2022-10-16T06:51:05;18.80;87.10
60287;DHT22;46141;52.382;5.270;2022-10-16T06:53:33;18.80;87.20
60287;DHT22;46141;52.382;5.270;2022-10-16T06:56:09;18.80;87.20
60287;DHT22;46141;52.382;5.270;2022-10-16T06:58:34;18.80;87.20
60287;DHT22;46141;52.382;5.270;2022-10-16T07:01:00;18.80;87.30
60287;DHT22;46141;52.382;5.270;2022-10-16T07:03:25;18.80;87.20
60287;DHT22;46141;52.382;5.270;2022-10-16T07:05:51;18.80;87.40
60287;DHT22;46141;52.382;5.270;2022-10-16T07:08:16;18.80;87.90
60287;DHT22;46141;52.382;5.270;2022-10-16T07:10:42;18.80;87.50
60287;DHT22;46141;52.382;5.270;2022-10-16T07:13:07;18.80;87.10
60287;DHT22;46141;52.382;5.270;2022-10-16T07:15:33;18.80;87.20
60287;DHT22;46141;52.382;5.270;2022-10-16T07:17:59;18.80;87.50
60287;DHT22;46141;52.382;5.270;2022-10-16T07:20:25;18.80;87.30
60287;DHT22;46141;52.382;5.270;2022-10-16T07:22:51;18.80;87.70
60287;DHT22;46141;52.382;5.270;2022-10-16T07:25:17;18.80;87.40
60287;DHT22;46141;52.382;5.270;2022-10-16T07:27:42;18.80;87.40
60287;DHT22;46141;52.382;5.270;2022-10-16T07:30:08;18.80;87.50
60287;DHT22;46141;52.382;5.270;2022-10-16T07:32:34;18.90;87.60
60287;DHT22;46141;52.382;5.270;2022-10-16T07:34:59;18.80;87.50
60287;DHT22;46141;52.382;5.270;2022-10-16T07:37:25;18.80;87.70
60287;DHT22;46141;52.382;5.270;2022-10-16T07:39:50;18.80;87.10
60287;DHT22;46141;52.382;5.270;2022-10-16T07:42:16;18.80;87.00
60287;DHT22;46141;52.382;5.270;2022-10-16T07:44:41;18.90;86.80
60287;DHT22;46141;52.382;5.270;2022-10-16T07:47:07;18.80;86.60
60287;DHT22;46141;52.382;5.270;2022-10-16T07:49:33;18.80;86.50
60287;DHT22;46141;52.382;5.270;2022-10-16T07:51:58;18.90;86.10
60287;DHT22;46141;52.382;5.270;2022-10-16T07:54:24;18.90;85.90
60287;DHT22;46141;52.382;5.270;2022-10-16T07:56:49;19.00;86.10
60287;DHT22;46141;52.382;5.270;2022-10-16T07:59:15;19.00;85.70
60287;DHT22;46141;52.382;5.270;2022-10-16T08:01:40;19.10;85.80
60287;DHT22;46141;52.382;5.270;2022-10-16T08:04:06;19.20;85.30
60287;DHT22;46141;52.382;5.270;2022-10-16T08:06:36;19.30;85.60
60287;DHT22;46141;52.382;5.270;2022-10-16T08:09:02;19.40;86.20
60287;DHT22;46141;52.382;5.270;2022-10-16T08:11:27;19.50;85.40
60287;DHT22;46141;52.382;5.270;2022-10-16T08:13:53;19.50;85.70
60287;DHT22;46141;52.382;5.270;2022-10-16T08:16:18;19.60;85.70
60287;DHT22;46141;52.382;5.270;2022-10-16T08:18:44;19.70;85.80
60287;DHT22;46141;52.382;5.270;2022-10-16T08:21:16;19.70;85.60
60287;DHT22;46141;52.382;5.270;2022-10-16T08:23:42;19.80;85.50
60287;DHT22;46141;52.382;5.270;2022-10-16T08:26:08;19.90;85.30
60287;DHT22;46141;52.382;5.270;2022-10-16T08:28:34;19.90;85.10
60287;DHT22;46141;52.382;5.270;2022-10-16T08:31:11;20.00;84.80
60287;DHT22;46141;52.382;5.270;2022-10-16T08:33:38;20.00;84.80
60287;DHT22;46141;52.382;5.270;2022-10-16T08:36:04;20.10;84.80
60287;DHT22;46141;52.382;5.270;2022-10-16T08:38:30;20.10;84.70
60287;DHT22;46141;52.382;5.270;2022-10-16T08:46:54;20.30;85.00
60287;DHT22;46141;52.382;5.270;2022-10-16T08:49:22;20.30;84.90
60287;DHT22;46141;52.382;5.270;2022-10-16T08:51:48;20.40;85.40
60287;DHT22;46141;52.382;5.270;2022-10-16T08:54:26;20.40;85.20
60287;DHT22;46141;52.382;5.270;2022-10-16T08:57:00;20.40;85.30
60287;DHT22;46141;52.382;5.270;2022-10-16T08:59:29;20.50;85.50
60287;DHT22;46141;52.382;5.270;2022-10-16T09:01:55;20.50;85.60
60287;DHT22;46141;52.382;5.270;2022-10-16T09:04:45;20.50;85.70
60287;DHT22;46141;52.382;5.270;2022-10-16T09:07:41;20.50;85.70
60287;DHT22;46141;52.382;5.270;2022-10-16T09:16:10;20.50;85.60
60287;DHT22;46141;52.382;5.270;2022-10-16T09:18:45;20.60;85.60
60287;DHT22;46141;52.382;5.270;2022-10-16T09:21:30;20.60;85.60
60287;DHT22;46141;52.382;5.270;2022-10-16T09:24:13;20.70;85.70
60287;DHT22;46141;52.382;5.270;2022-10-16T09:26:39;20.70;85.60
60287;DHT22;46141;52.382;5.270;2022-10-16T09:29:05;20.70;85.50
60287;DHT22;46141;52.382;5.270;2022-10-16T09:31:30;20.80;85.60
60287;DHT22;46141;52.382;5.270;2022-10-16T09:34:02;20.80;85.60
60287;DHT22;46141;52.382;5.270;2022-10-16T09:36:29;20.90;85.50
60287;DHT22;46141;52.382;5.270;2022-10-16T09:39:08;20.90;85.30
60287;DHT22;46141;52.382;5.270;2022-10-16T09:41:41;20.90;84.90
60287;DHT22;46141;52.382;5.270;2022-10-16T09:44:21;20.90;85.40
60287;DHT22;46141;52.382;5.270;2022-10-16T09:46:48;20.90;85.30
60287;DHT22;46141;52.382;5.270;2022-10-16T09:49:25;21.00;85.50
60287;DHT22;46141;52.382;5.270;2022-10-16T09:52:09;21.10;85.40
60287;DHT22;46141;52.382;5.270;2022-10-16T09:54:36;21.20;85.40
60287;DHT22;46141;52.382;5.270;2022-10-16T09:57:13;21.20;85.30
60287;DHT22;46141;52.382;5.270;2022-10-16T09:59:50;21.30;85.00
60287;DHT22;46141;52.382;5.270;2022-10-16T10:02:19;21.30;84.80
60287;DHT22;46141;52.382;5.270;2022-10-16T10:04:51;21.40;84.70
60287;DHT22;46141;52.382;5.270;2022-10-16T10:07:32;21.50;84.70
60287;DHT22;46141;52.382;5.270;2022-10-16T10:09:58;21.50;84.50
60287;DHT22;46141;52.382;5.270;2022-10-16T10:12:27;21.60;84.40
60287;DHT22;46141;52.382;5.270;2022-10-16T10:14:55;21.60;84.40
60287;DHT22;46141;52.382;5.270;2022-10-16T10:17:24;21.70;84.50
60287;DHT22;46141;52.382;5.270;2022-10-16T10:22:45;21.80;84.30
60287;DHT22;46141;52.382;5.270;2022-10-16T10:33:18;22.00;84.10
60287;DHT22;46141;52.382;5.270;2022-10-16T10:38:47;22.10;83.60
60287;DHT22;46141;52.382;5.270;2022-10-16T10:46:53;22.10;83.40
60287;DHT22;46141;52.382;5.270;2022-10-16T10:54:51;22.30;83.00
60287;DHT22;46141;52.382;5.270;2022-10-16T10:57:29;22.30;82.90
60287;DHT22;46141;52.382;5.270;2022-10-16T11:00:20;22.40;82.90
60287;DHT22;46141;52.382;5.270;2022-10-16T11:10:49;22.60;82.60
60287;DHT22;46141;52.382;5.270;2022-10-16T11:16:00;22.70;82.60
60287;DHT22;46141;52.382;5.270;2022-10-16T11:18:50;22.70;82.70
60287;DHT22;46141;52.382;5.270;2022-10-16T11:21:21;22.70;82.60
60287;DHT22;46141;52.382;5.270;2022-10-16T11:24:05;22.70;82.50
60287;DHT22;46141;52.382;5.270;2022-10-16T11:26:39;22.80;82.50
60287;DHT22;46141;52.382;5.270;2022-10-16T11:29:15;22.80;82.40
60287;DHT22;46141;52.382;5.270;2022-10-16T11:31:52;22.80;82.30
60287;DHT22;46141;52.382;5.270;2022-10-16T11:34:55;22.90;82.90
60287;DHT22;46141;52.382;5.270;2022-10-16T11:37:38;22.90;82.00
60287;DHT22;46141;52.382;5.270;2022-10-16T11:42:54;23.00;81.90
60287;DHT22;46141;52.382;5.270;2022-10-16T11:45:31;23.00;81.70
60287;DHT22;46141;52.382;5.270;2022-10-16T11:50:49;23.10;81.60
60287;DHT22;46141;52.382;5.270;2022-10-16T11:56:07;23.20;81.30
60287;DHT22;46141;52.382;5.270;2022-10-16T11:59:05;23.20;81.30
60287;DHT22;46141;52.382;5.270;2022-10-16T12:01:46;23.30;81.20
60287;DHT22;46141;52.382;5.270;2022-10-16T12:06:55;23.40;81.10
60287;DHT22;46141;52.382;5.270;2022-10-16T12:09:26;23.40;81.50
60287;DHT22;46141;52.382;5.270;2022-10-16T12:11:53;23.50;81.50
60287;DHT22;46141;52.382;5.270;2022-10-16T12:14:42;23.60;81.30
60287;DHT22;46141;52.382;5.270;2022-10-16T12:17:37;23.60;81.20
60287;DHT22;46141;52.382;5.270;2022-10-16T12:22:48;23.70;81.00
60287;DHT22;46141;52.382;5.270;2022-10-16T12:25:39;23.80;80.90
60287;DHT22;46141;52.382;5.270;2022-10-16T12:28:17;23.80;80.70
60287;DHT22;46141;52.382;5.270;2022-10-16T12:31:03;23.90;80.80
60287;DHT22;46141;52.382;5.270;2022-10-16T12:33:42;24.00;80.70
60287;DHT22;46141;52.382;5.270;2022-10-16T12:38:54;24.10;80.50
60287;DHT22;46141;52.382;5.270;2022-10-16T12:41:35;24.10;80.30
60287;DHT22;46141;52.382;5.270;2022-10-16T12:44:01;24.10;80.40
60287;DHT22;46141;52.382;5.270;2022-10-16T12:51:41;24.30;80.10
60287;DHT22;46141;52.382;5.270;2022-10-16T12:54:14;24.30;80.20
60287;DHT22;46141;52.382;5.270;2022-10-16T12:56:49;24.40;80.00
60287;DHT22;46141;52.382;5.270;2022-10-16T12:59:40;24.50;79.90
60287;DHT22;46141;52.382;5.270;2022-10-16T13:10:19;24.60;80.00
60287;DHT22;46141;52.382;5.270;2022-10-16T13:29:34;24.60;80.60
60287;DHT22;46141;52.382;5.270;2022-10-16T13:32:07;24.50;80.90
60287;DHT22;46141;52.382;5.270;2022-10-16T13:34:44;24.50;81.00
60287;DHT22;46141;52.382;5.270;2022-10-16T13:37:24;24.50;81.10
60287;DHT22;46141;52.382;5.270;2022-10-16T13:39:50;24.40;81.20
60287;DHT22;46141;52.382;5.270;2022-10-16T13:42:29;24.40;81.00
60287;DHT22;46141;52.382;5.270;2022-10-16T13:44:56;24.40;81.00
60287;DHT22;46141;52.382;5.270;2022-10-16T13:47:27;24.40;80.90
60287;DHT22;46141;52.382;5.270;2022-10-16T13:50:33;24.40;80.90
60287;DHT22;46141;52.382;5.270;2022-10-16T13:53:06;24.40;81.00
60287;DHT22;46141;52.382;5.270;2022-10-16T13:55:33;24.40;80.80
60287;DHT22;46141;52.382;5.270;2022-10-16T13:58:12;24.30;80.80
60287;DHT22;46141;52.382;5.270;2022-10-16T14:00:38;24.30;80.70
60287;DHT22;46141;52.382;5.270;2022-10-16T14:03:11;24.20;81.00
60287;DHT22;46141;52.382;5.270;2022-10-16T14:06:00;24.20;80.60
60287;DHT22;46141;52.382;5.270;2022-10-16T14:08:28;24.10;79.80
60287;DHT22;46141;52.382;5.270;2022-10-16T14:10:57;24.00;76.70
60287;DHT22;46141;52.382;5.270;2022-10-16T14:13:34;23.80;74.90
60287;DHT22;46141;52.382;5.270;2022-10-16T14:16:07;23.80;74.70
60287;DHT22;46141;52.382;5.270;2022-10-16T14:18:34;23.70;74.50
60287;DHT22;46141;52.382;5.270;2022-10-16T14:21:12;23.60;74.70
60287;DHT22;46141;52.382;5.270;2022-10-16T14:23:41;23.60;74.80
60287;DHT22;46141;52.382;5.270;2022-10-16T14:28:40;23.50;74.80
60287;DHT22;46141;52.382;5.270;2022-10-16T14:31:29;23.40;74.80
60287;DHT22;46141;52.382;5.270;2022-10-16T14:33:56;23.40;74.90
60287;DHT22;46141;52.382;5.270;2022-10-16T14:36:22;23.30;74.80
60287;DHT22;46141;52.382;5.270;2022-10-16T14:39:13;23.30;75.00
60287;DHT22;46141;52.382;5.270;2022-10-16T14:41:46;23.20;75.00
60287;DHT22;46141;52.382;5.270;2022-10-16T14:44:12;23.20;75.00
60287;DHT22;46141;52.382;5.270;2022-10-16T14:46:41;23.10;75.20
60287;DHT22;46141;52.382;5.270;2022-10-16T14:51:39;23.00;75.30
60287;DHT22;46141;52.382;5.270;2022-10-16T14:54:04;23.00;75.40
60287;DHT22;46141;52.382;5.270;2022-10-16T14:56:42;22.90;75.60
60287;DHT22;46141;52.382;5.270;2022-10-16T14:59:22;22.90;75.50
60287;DHT22;46141;52.382;5.270;2022-10-16T15:01:50;22.80;76.00
60287;DHT22;46141;52.382;5.270;2022-10-16T15:04:15;22.80;75.80
60287;DHT22;46141;52.382;5.270;2022-10-16T15:06:41;22.80;75.70
60287;DHT22;46141;52.382;5.270;2022-10-16T15:09:07;22.80;75.80
60287;DHT22;46141;52.382;5.270;2022-10-16T15:11:33;22.70;75.90
60287;DHT22;46141;52.382;5.270;2022-10-16T15:13:58;22.70;76.00
60287;DHT22;46141;52.382;5.270;2022-10-16T15:16:24;22.60;76.00
60287;DHT22;46141;52.382;5.270;2022-10-16T15:18:50;22.60;76.20
60287;DHT22;46141;52.382;5.270;2022-10-16T15:21:28;22.60;76.30
60287;DHT22;46141;52.382;5.270;2022-10-16T15:23:54;22.60;76.60
60287;DHT22;46141;52.382;5.270;2022-10-16T15:26:19;22.60;77.00
60287;DHT22;46141;52.382;5.270;2022-10-16T15:28:45;22.50;76.90
60287;DHT22;46141;52.382;5.270;2022-10-16T15:31:10;22.40;76.80
60287;DHT22;46141;52.382;5.270;2022-10-16T15:33:36;22.40;76.80
60287;DHT22;46141;52.382;5.270;2022-10-16T15:36:03;22.40;76.90
60287;DHT22;46141;52.382;5.270;2022-10-16T15:38:30;22.40;77.00
60287;DHT22;46141;52.382;5.270;2022-10-16T15:40:56;22.30;77.00
60287;DHT22;46141;52.382;5.270;2022-10-16T15:43:21;22.40;77.20
60287;DHT22;46141;52.382;5.270;2022-10-16T15:46:11;22.40;77.30
60287;DHT22;46141;52.382;5.270;2022-10-16T15:48:37;22.30;77.30
60287;DHT22;46141;52.382;5.270;2022-10-16T15:51:07;22.30;77.30
60287;DHT22;46141;52.382;5.270;2022-10-16T15:53:33;22.30;77.40
60287;DHT22;46141;52.382;5.270;2022-10-16T15:56:02;22.30;77.30
60287;DHT22;46141;52.382;5.270;2022-10-16T15:58:27;22.30;77.60
60287;DHT22;46141;52.382;5.270;2022-10-16T16:00:59;22.20;78.10
60287;DHT22;46141;52.382;5.270;2022-10-16T16:03:25;22.30;78.40
60287;DHT22;46141;52.382;5.270;2022-10-16T16:05:50;22.20;78.80
60287;DHT22;46141;52.382;5.270;2022-10-16T16:08:16;22.20;79.10
60287;DHT22;46141;52.382;5.270;2022-10-16T16:10:41;22.20;79.70
60287;DHT22;46141;52.382;5.270;2022-10-16T16:13:07;22.20;79.30
60287;DHT22;46141;52.382;5.270;2022-10-16T16:15:33;22.30;79.20
60287;DHT22;46141;52.382;5.270;2022-10-16T16:17:58;22.30;79.30
60287;DHT22;46141;52.382;5.270;2022-10-16T16:20:24;22.30;79.50
60287;DHT22;46141;52.382;5.270;2022-10-16T16:25:17;22.30;79.10
60287;DHT22;46141;52.382;5.270;2022-10-16T16:27:42;22.30;79.30
60287;DHT22;46141;52.382;5.270;2022-10-16T16:30:10;22.20;79.40
60287;DHT22;46141;52.382;5.270;2022-10-16T16:32:36;22.20;79.40
60287;DHT22;46141;52.382;5.270;2022-10-16T16:35:03;22.20;79.50
60287;DHT22;46141;52.382;5.270;2022-10-16T16:37:28;22.20;79.60
60287;DHT22;46141;52.382;5.270;2022-10-16T16:39:54;22.10;79.60
60287;DHT22;46141;52.382;5.270;2022-10-16T16:42:20;22.10;79.60
60287;DHT22;46141;52.382;5.270;2022-10-16T16:44:47;22.10;79.50
60287;DHT22;46141;52.382;5.270;2022-10-16T16:47:13;22.10;79.60
60287;DHT22;46141;52.382;5.270;2022-10-16T16:49:38;22.10;80.00
60287;DHT22;46141;52.382;5.270;2022-10-16T16:52:04;22.10;79.80
60287;DHT22;46141;52.382;5.270;2022-10-16T16:54:30;22.20;80.10
60287;DHT22;46141;52.382;5.270;2022-10-16T16:56:55;22.10;80.30
60287;DHT22;46141;52.382;5.270;2022-10-16T16:59:21;22.10;80.50
60287;DHT22;46141;52.382;5.270;2022-10-16T17:01:47;22.10;80.70
60287;DHT22;46141;52.382;5.270;2022-10-16T17:04:13;22.10;80.90
60287;DHT22;46141;52.382;5.270;2022-10-16T17:06:38;22.00;81.10
60287;DHT22;46141;52.382;5.270;2022-10-16T17:09:05;22.00;80.80
60287;DHT22;46141;52.382;5.270;2022-10-16T17:11:31;21.90;81.40
60287;DHT22;46141;52.382;5.270;2022-10-16T17:13:59;22.00;81.40
60287;DHT22;46141;52.382;5.270;2022-10-16T17:16:28;22.00;81.40
60287;DHT22;46141;52.382;5.270;2022-10-16T17:18:54;21.90;81.50
60287;DHT22;46141;52.382;5.270;2022-10-16T17:21:20;21.90;81.60
60287;DHT22;46141;52.382;5.270;2022-10-16T17:23:46;21.90;81.70
60287;DHT22;46141;52.382;5.270;2022-10-16T17:26:14;21.90;81.80
60287;DHT22;46141;52.382;5.270;2022-10-16T17:28:40;21.90;81.80
60287;DHT22;46141;52.382;5.270;2022-10-16T17:31:14;21.80;81.80
60287;DHT22;46141;52.382;5.270;2022-10-16T17:33:40;21.80;81.60
60287;DHT22;46141;52.382;5.270;2022-10-16T17:36:07;21.90;81.70